createdAt,value
2022-11-13T00:01:08.166Z,0.50
2022-11-13T00:03:36.131Z,0.60
2022-11-13T00:06:04.341Z,0.50
2022-11-13T00:08:33.842Z,0.60
2022-11-13T00:11:03.023Z,0.60
2022-11-13T00:13:31.045Z,0.50
2022-11-13T00:16:00.379Z,0.50
2022-11-13T00:18:29.975Z,0.50
2022-11-13T00:20:59.749Z,0.50
2022-11-13T00:23:27.705Z,0.50
2022-11-13T00:25:57.043Z,0.50
2022-11-13T00:28:25.206Z,0.40
2022-11-13T00:30:59.747Z,0.40
2022-11-13T00:33:54.998Z,0.40
2022-11-13T00:36:23.603Z,0.40
2022-11-13T00:38:54.525Z,0.40
2022-11-13T00:41:24.468Z,0.40
2022-11-13T00:43:52.597Z,0.50
2022-11-13T00:46:21.124Z,0.40
2022-11-13T00:48:49.242Z,0.50
2022-11-13T00:51:17.260Z,0.50
2022-11-13T00:53:45.230Z,0.50
2022-11-13T00:56:13.266Z,0.50
2022-11-13T00:58:42.652Z,0.50
2022-11-13T01:01:13.599Z,0.50
2022-11-13T01:03:42.202Z,0.50
2022-11-13T01:06:14.915Z,0.50
2022-11-13T01:08:43.318Z,0.50
2022-11-13T01:11:12.729Z,0.50
2022-11-13T01:13:43.196Z,0.50
2022-11-13T01:16:13.035Z,0.50
2022-11-13T01:18:42.735Z,0.50
2022-11-13T01:21:12.603Z,0.50
2022-11-13T01:23:41.394Z,0.50
2022-11-13T01:26:12.227Z,0.50
2022-11-13T01:28:43.014Z,0.50
2022-11-13T01:31:13.456Z,0.50
2022-11-13T01:33:41.440Z,0.50
2022-11-13T01:36:12.833Z,0.50
2022-11-13T01:38:41.122Z,0.50
2022-11-13T01:41:09.930Z,0.50
2022-11-13T01:43:39.829Z,0.50
2022-11-13T01:46:19.039Z,0.50
2022-11-13T01:48:51.284Z,0.50
2022-11-13T01:51:27.042Z,0.50
2022-11-13T01:53:57.075Z,0.50
2022-11-13T01:56:25.230Z,0.50
2022-11-13T01:59:02.976Z,0.50
2022-11-13T02:01:32.401Z,0.50
2022-11-13T02:04:00.685Z,0.50
2022-11-13T02:06:34.229Z,0.50
2022-11-13T02:09:02.927Z,0.40
2022-11-13T02:11:31.078Z,0.40
2022-11-13T02:14:00.504Z,0.40
2022-11-13T02:16:30.806Z,0.40
2022-11-13T02:19:01.286Z,0.40
2022-11-13T02:21:37.301Z,0.40
2022-11-13T02:24:27.147Z,0.40
2022-11-13T02:26:57.607Z,0.40
2022-11-13T02:29:25.606Z,0.40
2022-11-13T02:31:53.653Z,0.40
2022-11-13T02:34:21.771Z,0.40
2022-11-13T02:36:50.067Z,0.30
2022-11-13T02:39:19.622Z,0.40
2022-11-13T02:41:47.479Z,0.40
2022-11-13T02:44:15.492Z,0.30
2022-11-13T02:46:43.993Z,0.30
2022-11-13T02:49:12.001Z,0.30
2022-11-13T02:51:40.010Z,0.30
2022-11-13T02:54:10.736Z,0.30
2022-11-13T02:56:42.287Z,0.30
2022-11-13T02:59:10.328Z,0.30
2022-11-13T03:01:38.347Z,0.30
2022-11-13T03:04:06.382Z,0.40
2022-11-13T03:06:34.363Z,0.30
2022-11-13T03:09:02.399Z,0.30
2022-11-13T03:11:30.410Z,0.30
2022-11-13T03:13:59.735Z,0.30
2022-11-13T03:16:27.744Z,0.40
2022-11-13T03:18:56.904Z,0.40
2022-11-13T03:21:24.860Z,0.40
2022-11-13T03:23:54.572Z,0.50
2022-11-13T03:26:22.583Z,0.50
2022-11-13T03:28:51.146Z,0.50
2022-11-13T03:31:20.570Z,0.50
2022-11-13T03:33:48.591Z,0.50
2022-11-13T03:36:16.574Z,0.40
2022-11-13T03:38:44.564Z,0.50
2022-11-13T03:41:14.755Z,0.50
2022-11-13T03:43:42.955Z,0.50
2022-11-13T03:46:11.035Z,0.50
2022-11-13T03:48:40.427Z,0.40
2022-11-13T03:51:08.630Z,0.50
2022-11-13T03:53:36.645Z,0.50
2022-11-13T03:56:04.807Z,0.50
2022-11-13T03:58:34.104Z,0.50
2022-11-13T04:01:04.338Z,0.50
2022-11-13T04:03:32.319Z,0.50
2022-11-13T04:06:01.663Z,0.60
2022-11-13T04:08:29.960Z,0.70
2022-11-13T04:11:07.383Z,0.90
2022-11-13T04:13:35.387Z,1.00
2022-11-13T04:16:03.506Z,1.20
2022-11-13T04:18:31.573Z,1.30
2022-11-13T04:21:02.108Z,1.40
2022-11-13T04:23:30.390Z,1.60
2022-11-13T04:25:58.538Z,1.70
2022-11-13T04:28:26.931Z,1.80
2022-11-13T04:30:55.659Z,1.90
2022-11-13T04:33:23.649Z,1.90
2022-11-13T04:35:51.719Z,2.00
2022-11-13T04:38:21.072Z,2.10
2022-11-13T04:40:51.475Z,2.20
2022-11-13T04:43:18.512Z,2.20
2022-11-13T04:45:46.461Z,2.30
2022-11-13T04:48:14.443Z,2.30
2022-11-13T04:50:42.662Z,2.40
2022-11-13T04:53:10.652Z,2.40
2022-11-13T04:55:39.978Z,2.40
2022-11-13T04:58:08.056Z,2.50
2022-11-13T05:00:36.031Z,2.50
2022-11-13T05:03:04.074Z,2.60
2022-11-13T05:05:32.055Z,2.60
2022-11-13T05:08:00.030Z,2.60
2022-11-13T05:10:28.027Z,2.70
2022-11-13T05:12:58.750Z,2.70
2022-11-13T05:15:26.787Z,2.70
2022-11-13T05:17:55.092Z,2.80
2022-11-13T05:20:23.074Z,2.80
2022-11-13T05:22:51.087Z,2.90
2022-11-13T05:25:19.140Z,2.90
2022-11-13T05:27:47.158Z,3.00
2022-11-13T05:30:17.535Z,3.00
2022-11-13T05:32:45.506Z,3.00
2022-11-13T05:35:13.498Z,3.00
2022-11-13T05:37:41.525Z,3.10
2022-11-13T05:40:10.846Z,3.10
2022-11-13T05:42:38.889Z,3.10
2022-11-13T05:45:07.556Z,3.10
2022-11-13T05:47:36.918Z,3.20
2022-11-13T05:50:05.610Z,3.20
2022-11-13T05:52:33.615Z,3.20
2022-11-13T05:55:01.606Z,3.20
2022-11-13T05:57:29.623Z,3.30
2022-11-13T05:59:57.674Z,3.30
2022-11-13T06:02:25.777Z,3.30
2022-11-13T06:04:56.534Z,3.30
2022-11-13T06:07:24.747Z,3.30
2022-11-13T06:09:52.831Z,3.40
2022-11-13T06:12:20.877Z,3.40
2022-11-13T06:14:48.918Z,3.40
2022-11-13T06:17:16.916Z,3.40
2022-11-13T06:19:45.197Z,3.50
2022-11-13T06:22:14.648Z,3.50
2022-11-13T06:24:42.648Z,3.50
2022-11-13T06:27:10.699Z,3.50
2022-11-13T06:29:38.680Z,3.50
2022-11-13T06:32:06.848Z,3.50
2022-11-13T06:34:34.872Z,3.60
2022-11-13T06:37:02.908Z,3.60
2022-11-13T06:39:32.265Z,3.60
2022-11-13T06:42:00.264Z,3.70
2022-11-13T06:44:28.220Z,3.60
2022-11-13T06:46:56.280Z,3.70
2022-11-13T06:49:24.297Z,3.70
2022-11-13T06:51:52.376Z,3.70
2022-11-13T06:54:20.392Z,3.70
2022-11-13T06:56:49.752Z,3.70
2022-11-13T06:59:17.727Z,3.80
2022-11-13T07:01:45.725Z,3.80
2022-11-13T07:04:14.328Z,3.80
2022-11-13T07:06:42.394Z,3.90
2022-11-13T07:09:10.405Z,3.90
2022-11-13T07:11:38.383Z,3.90
2022-11-13T07:14:07.985Z,3.90
2022-11-13T07:17:04.220Z,4.00
2022-11-13T07:19:23.979Z,4.00
2022-11-13T07:21:51.980Z,4.00
2022-11-13T07:24:19.979Z,4.10
2022-11-13T07:26:48.045Z,4.10
2022-11-13T07:29:17.354Z,4.10
2022-11-13T07:31:45.333Z,4.10
2022-11-13T07:34:14.736Z,4.10
2022-11-13T07:36:42.724Z,4.20
2022-11-13T07:39:10.693Z,4.20
2022-11-13T07:41:38.732Z,4.20
2022-11-13T07:44:09.408Z,4.20
2022-11-13T07:46:39.359Z,4.30
2022-11-13T07:49:07.502Z,4.30
2022-11-13T07:51:35.508Z,4.40
2022-11-13T07:54:03.518Z,4.40
2022-11-13T07:56:31.491Z,4.40
2022-11-13T07:58:59.705Z,4.40
2022-11-13T08:01:27.951Z,4.50
2022-11-13T08:03:59.367Z,4.50
2022-11-13T08:06:28.015Z,4.50
2022-11-13T08:08:56.009Z,4.60
2022-11-13T08:11:24.011Z,4.60
2022-11-13T08:13:53.643Z,4.60
2022-11-13T08:16:23.379Z,4.70
2022-11-13T08:18:51.455Z,4.70
2022-11-13T08:21:21.453Z,4.80
2022-11-13T08:23:50.262Z,4.80
2022-11-13T08:26:19.068Z,4.80
2022-11-13T08:28:47.555Z,4.80
2022-11-13T08:31:16.932Z,4.80
2022-11-13T08:33:44.959Z,4.90
2022-11-13T08:36:13.186Z,5.00
2022-11-13T08:38:42.535Z,5.00
2022-11-13T08:41:10.562Z,5.10
2022-11-13T08:43:38.967Z,5.10
2022-11-13T08:46:07.273Z,5.20
2022-11-13T08:48:35.607Z,5.20
2022-11-13T08:51:03.619Z,5.30
2022-11-13T08:53:31.696Z,5.30
2022-11-13T08:56:02.956Z,5.40
2022-11-13T08:58:31.407Z,5.50
2022-11-13T09:01:03.479Z,5.60
2022-11-13T09:03:31.838Z,5.60
2022-11-13T09:05:59.885Z,5.70
2022-11-13T09:08:28.227Z,5.70
2022-11-13T09:10:56.420Z,5.80
2022-11-13T09:13:25.822Z,5.80
2022-11-13T09:15:53.832Z,5.90
2022-11-13T09:18:21.812Z,5.90
2022-11-13T09:20:49.836Z,6.00
2022-11-13T09:23:17.872Z,6.10
2022-11-13T09:25:45.888Z,6.20
2022-11-13T09:28:14.265Z,6.30
2022-11-13T09:30:43.691Z,6.40
2022-11-13T09:33:15.304Z,6.50
2022-11-13T09:35:44.408Z,6.50
2022-11-13T09:38:14.494Z,6.50
2022-11-13T09:40:47.601Z,6.50
2022-11-13T09:43:25.719Z,6.60
2022-11-13T09:46:00.833Z,6.70
2022-11-13T09:48:34.605Z,6.80
2022-11-13T09:51:07.452Z,7.00
2022-11-13T09:53:40.087Z,7.10
2022-11-13T09:56:28.135Z,7.20
2022-11-13T09:59:03.175Z,7.30
2022-11-13T10:01:43.929Z,7.30
2022-11-13T10:04:15.297Z,7.40
2022-11-13T10:06:55.815Z,7.60
2022-11-13T10:09:32.260Z,7.60
2022-11-13T10:12:06.537Z,7.60
2022-11-13T10:14:42.899Z,7.70
2022-11-13T10:17:19.809Z,7.60
2022-11-13T10:19:56.019Z,7.60
2022-11-13T10:22:33.265Z,7.50
2022-11-13T10:25:11.606Z,7.60
2022-11-13T10:27:39.956Z,7.70
2022-11-13T10:30:15.870Z,7.70
2022-11-13T10:32:46.485Z,7.70
2022-11-13T10:35:38.150Z,7.90
2022-11-13T10:38:09.139Z,8.20
2022-11-13T10:40:38.732Z,8.20
2022-11-13T10:43:07.686Z,8.20
2022-11-13T10:45:35.672Z,8.10
2022-11-13T10:48:05.495Z,8.20
2022-11-13T10:50:34.179Z,8.30
2022-11-13T10:53:02.143Z,8.60
2022-11-13T10:55:39.247Z,8.80
2022-11-13T10:58:14.631Z,8.80
2022-11-13T11:00:44.905Z,8.80
2022-11-13T11:03:20.391Z,8.80
2022-11-13T11:05:56.453Z,8.60
2022-11-13T11:08:31.014Z,8.60
2022-11-13T11:11:19.530Z,8.80
2022-11-13T11:13:49.503Z,9.20
2022-11-13T11:16:21.220Z,10.10
2022-11-13T11:18:54.700Z,10.50
2022-11-13T11:21:26.062Z,10.60
2022-11-13T11:23:59.766Z,10.60
2022-11-13T11:26:33.541Z,10.40
2022-11-13T11:29:15.651Z,10.20
2022-11-13T11:31:51.437Z,9.90
2022-11-13T11:34:26.126Z,9.80
2022-11-13T11:37:01.955Z,9.70
2022-11-13T11:39:36.567Z,9.60
2022-11-13T11:42:27.578Z,9.50
2022-11-13T11:45:13.136Z,9.40
2022-11-13T11:47:41.392Z,9.30
2022-11-13T11:50:15.284Z,9.20
2022-11-13T11:53:05.086Z,9.20
2022-11-13T11:55:44.816Z,9.20
2022-11-13T11:58:26.152Z,9.10
2022-11-13T12:01:05.696Z,9.20
2022-11-13T12:04:07.991Z,9.20
2022-11-13T12:06:50.664Z,9.10
2022-11-13T12:09:25.969Z,9.20
2022-11-13T12:12:01.960Z,9.30
2022-11-13T12:14:39.074Z,9.60
2022-11-13T12:17:27.783Z,10.00
2022-11-13T12:20:06.910Z,10.50
2022-11-13T12:22:46.436Z,10.60
2022-11-13T12:25:18.897Z,10.40
2022-11-13T12:27:55.442Z,10.70
2022-11-13T12:30:28.695Z,10.70
2022-11-13T12:33:10.262Z,10.70
2022-11-13T12:35:39.419Z,10.70
2022-11-13T12:38:30.240Z,10.70
2022-11-13T12:41:04.261Z,10.50
2022-11-13T12:43:48.876Z,10.70
2022-11-13T12:46:18.590Z,10.70
2022-11-13T12:48:48.080Z,11.30
2022-11-13T12:51:18.138Z,13.10
2022-11-13T12:53:49.762Z,13.90
2022-11-13T12:56:32.294Z,13.50
2022-11-13T12:59:29.699Z,13.00
2022-11-13T13:01:57.978Z,12.70
2022-11-13T13:04:44.306Z,12.60
2022-11-13T13:07:26.464Z,12.40
2022-11-13T13:10:05.953Z,12.10
2022-11-13T13:12:41.265Z,12.60
2022-11-13T13:15:27.187Z,13.10
2022-11-13T13:18:05.405Z,13.50
2022-11-13T13:20:36.747Z,13.30
2022-11-13T13:23:08.616Z,12.90
2022-11-13T13:25:38.943Z,12.40
2022-11-13T13:28:21.213Z,11.90
2022-11-13T13:30:58.157Z,11.50
2022-11-13T13:33:33.519Z,11.20
2022-11-13T13:36:16.759Z,11.30
2022-11-13T13:38:52.696Z,11.50
2022-11-13T13:41:34.615Z,12.20
2022-11-13T13:44:19.440Z,12.70
2022-11-13T13:46:47.613Z,13.20
2022-11-13T13:49:18.724Z,13.60
2022-11-13T13:51:50.282Z,13.90
2022-11-13T13:54:21.634Z,14.00
2022-11-13T13:56:51.407Z,14.00
2022-11-13T13:59:30.052Z,13.70
2022-11-13T14:02:00.451Z,13.30
2022-11-13T14:04:30.233Z,12.90
2022-11-13T14:06:59.863Z,12.50
2022-11-13T14:09:29.840Z,12.10
2022-11-13T14:12:03.604Z,11.90
2022-11-13T14:14:36.036Z,11.50
2022-11-13T14:17:04.042Z,11.30
2022-11-13T14:19:32.054Z,11.00
2022-11-13T14:22:01.805Z,10.80
2022-11-13T14:24:34.602Z,10.70
2022-11-13T14:27:07.708Z,10.50
2022-11-13T14:29:38.653Z,10.40
2022-11-13T14:32:11.556Z,10.20
2022-11-13T14:34:43.827Z,10.00
2022-11-13T14:37:25.103Z,9.80
2022-11-13T14:39:53.955Z,9.70
2022-11-13T14:42:27.511Z,9.60
2022-11-13T14:45:06.146Z,9.50
2022-11-13T14:47:37.630Z,9.40
2022-11-13T14:50:21.816Z,9.20
2022-11-13T14:53:01.431Z,9.10
2022-11-13T14:55:31.603Z,9.00
2022-11-13T14:58:00.978Z,8.80
2022-11-13T15:00:33.157Z,8.70
2022-11-13T15:03:02.132Z,8.60
2022-11-13T15:05:30.306Z,8.50
2022-11-13T15:07:58.713Z,8.40
2022-11-13T15:10:29.367Z,8.30
2022-11-13T15:12:57.361Z,8.20
2022-11-13T15:15:30.178Z,8.00
2022-11-13T15:17:58.449Z,8.00
2022-11-13T15:20:29.170Z,7.90
2022-11-13T15:22:59.716Z,7.90
2022-11-13T15:25:28.401Z,7.80
2022-11-13T15:27:56.380Z,7.80
2022-11-13T15:30:25.836Z,7.70
2022-11-13T15:32:54.727Z,7.60
2022-11-13T15:35:22.788Z,7.50
2022-11-13T15:37:50.822Z,7.40
2022-11-13T15:40:19.044Z,7.30
2022-11-13T15:42:47.375Z,7.30
2022-11-13T15:45:17.328Z,7.20
2022-11-13T15:47:46.721Z,7.20
2022-11-13T15:50:15.870Z,7.10
2022-11-13T15:52:45.960Z,7.10
2022-11-13T15:55:21.943Z,7.00
2022-11-13T15:57:50.556Z,7.00
2022-11-13T16:00:21.261Z,6.90
2022-11-13T16:02:51.966Z,6.80
2022-11-13T16:05:19.956Z,6.80
2022-11-13T16:07:47.944Z,6.80
2022-11-13T16:10:16.497Z,6.70
2022-11-13T16:12:45.760Z,6.70
2022-11-13T16:15:15.631Z,6.70
2022-11-13T16:17:47.249Z,6.70
2022-11-13T16:20:18.679Z,6.70
2022-11-13T16:22:47.187Z,6.70
2022-11-13T16:25:17.097Z,6.70
2022-11-13T16:27:45.949Z,6.70
2022-11-13T16:30:20.796Z,6.70
2022-11-13T16:32:48.972Z,6.70
2022-11-13T16:35:20.297Z,6.70
2022-11-13T16:37:48.444Z,6.70
2022-11-13T16:40:22.528Z,6.70
2022-11-13T16:42:51.561Z,6.70
2022-11-13T16:45:19.932Z,6.80
2022-11-13T16:47:49.775Z,6.80
2022-11-13T16:50:22.161Z,6.80
2022-11-13T16:52:51.898Z,6.80
2022-11-13T16:55:19.950Z,6.90
2022-11-13T16:57:48.000Z,6.80
2022-11-13T17:00:18.203Z,6.90
2022-11-13T17:02:46.638Z,6.90
2022-11-13T17:05:16.132Z,6.90
2022-11-13T17:07:45.507Z,6.90
2022-11-13T17:10:32.604Z,6.90
2022-11-13T17:13:01.523Z,6.90
2022-11-13T17:15:29.659Z,6.90
2022-11-13T17:17:58.494Z,6.90
2022-11-13T17:20:27.177Z,6.90
2022-11-13T17:22:58.042Z,6.90
2022-11-13T17:25:27.979Z,6.90
2022-11-13T17:27:56.022Z,6.90
2022-11-13T17:30:24.317Z,6.90
2022-11-13T17:32:52.343Z,6.90
2022-11-13T17:35:20.366Z,7.00
2022-11-13T17:37:48.382Z,7.00
2022-11-13T17:40:18.141Z,6.90
2022-11-13T17:42:47.881Z,7.00
2022-11-13T17:45:16.205Z,7.00
2022-11-13T17:47:44.669Z,7.00
2022-11-13T17:50:12.773Z,7.00
2022-11-13T17:52:40.799Z,7.00
2022-11-13T17:55:11.795Z,7.00
2022-11-13T17:57:41.214Z,7.00
2022-11-13T18:00:10.591Z,7.00
2022-11-13T18:02:39.464Z,7.00
2022-11-13T18:05:09.763Z,7.00
2022-11-13T18:07:37.965Z,7.00
2022-11-13T18:10:06.791Z,7.00
2022-11-13T18:12:34.855Z,7.00
2022-11-13T18:15:04.720Z,7.00
2022-11-13T18:17:32.718Z,7.00
2022-11-13T18:20:02.217Z,7.00
2022-11-13T18:22:31.526Z,7.00
2022-11-13T18:25:01.413Z,7.00
2022-11-13T18:27:29.612Z,6.90
2022-11-13T18:29:57.677Z,6.90
2022-11-13T18:32:27.122Z,6.90
2022-11-13T18:34:55.264Z,6.90
2022-11-13T18:37:23.459Z,6.90
2022-11-13T18:39:51.718Z,6.90
2022-11-13T18:42:19.801Z,6.90
2022-11-13T18:44:47.811Z,6.90
2022-11-13T18:47:15.820Z,6.90
2022-11-13T18:49:45.173Z,6.90
2022-11-13T18:52:13.419Z,6.90
2022-11-13T18:54:41.569Z,6.90
2022-11-13T18:57:09.787Z,6.90
2022-11-13T18:59:37.836Z,6.80
2022-11-13T19:02:05.941Z,6.90
2022-11-13T19:04:36.263Z,6.90
2022-11-13T19:07:05.802Z,6.80
2022-11-13T19:09:33.666Z,6.80
2022-11-13T19:12:01.662Z,6.80
2022-11-13T19:14:29.662Z,6.90
2022-11-13T19:16:57.634Z,6.80
2022-11-13T19:19:25.904Z,6.80
2022-11-13T19:21:53.945Z,6.80
2022-11-13T19:24:23.320Z,6.80
2022-11-13T19:26:51.347Z,6.70
2022-11-13T19:29:20.208Z,6.70
2022-11-13T19:31:48.732Z,6.60
2022-11-13T19:34:16.844Z,6.60
2022-11-13T19:36:46.482Z,6.60
2022-11-13T19:39:15.559Z,6.70
2022-11-13T19:41:44.967Z,6.60
2022-11-13T19:44:13.183Z,6.60
2022-11-13T19:46:41.139Z,6.60
2022-11-13T19:49:09.299Z,6.50
2022-11-13T19:51:37.292Z,6.50
2022-11-13T19:54:05.548Z,6.40
2022-11-13T19:56:33.587Z,6.40
2022-11-13T19:59:02.995Z,6.40
2022-11-13T20:01:32.873Z,6.40
2022-11-13T20:04:02.502Z,6.40
2022-11-13T20:06:31.406Z,6.30
2022-11-13T20:08:59.768Z,6.30
2022-11-13T20:11:27.795Z,6.20
2022-11-13T20:13:57.597Z,6.20
2022-11-13T20:16:27.399Z,6.20
2022-11-13T20:18:58.141Z,6.10
2022-11-13T20:21:26.811Z,6.20
2022-11-13T20:23:57.555Z,6.10
2022-11-13T20:26:26.195Z,6.10
2022-11-13T20:28:54.233Z,6.00
2022-11-13T20:31:24.082Z,6.00
2022-11-13T20:33:55.734Z,6.00
2022-11-13T20:36:25.034Z,5.90
2022-11-13T20:38:54.816Z,5.80
2022-11-13T20:41:23.979Z,5.80
2022-11-13T20:43:52.837Z,5.80
2022-11-13T20:46:21.859Z,5.70
2022-11-13T20:48:49.881Z,5.70
2022-11-13T20:51:20.525Z,5.60
2022-11-13T20:53:48.732Z,5.70
2022-11-13T20:56:17.483Z,5.70
2022-11-13T20:58:45.455Z,5.70
2022-11-13T21:01:14.933Z,5.70
2022-11-13T21:03:44.686Z,5.70
2022-11-13T21:06:14.647Z,5.70
2022-11-13T21:08:44.800Z,5.70
2022-11-13T21:11:16.264Z,5.60
2022-11-13T21:13:44.727Z,5.60
2022-11-13T21:16:12.767Z,5.60
2022-11-13T21:18:40.935Z,5.60
2022-11-13T21:21:11.000Z,5.50
2022-11-13T21:23:39.294Z,5.50
2022-11-13T21:26:09.716Z,5.40
2022-11-13T21:28:38.091Z,5.40
2022-11-13T21:31:07.918Z,5.30
2022-11-13T21:33:37.796Z,5.30
2022-11-13T21:36:06.983Z,5.20
2022-11-13T21:38:35.313Z,5.10
2022-11-13T21:41:24.257Z,5.10
2022-11-13T21:43:57.817Z,5.10
2022-11-13T21:46:27.613Z,5.10
2022-11-13T21:48:58.160Z,5.00
2022-11-13T21:51:26.639Z,5.00
2022-11-13T21:53:54.644Z,4.90
2022-11-13T21:56:23.223Z,4.80
2022-11-13T21:58:52.755Z,4.80
2022-11-13T22:01:22.354Z,4.70
2022-11-13T22:03:51.950Z,4.70
2022-11-13T22:06:21.976Z,4.70
2022-11-13T22:08:56.275Z,4.70
2022-11-13T22:11:24.796Z,4.80
2022-11-13T22:13:54.619Z,4.80
2022-11-13T22:16:23.144Z,4.80
2022-11-13T22:18:53.658Z,4.80
2022-11-13T22:21:22.175Z,4.80
2022-11-13T22:23:50.526Z,4.80
2022-11-13T22:26:20.479Z,4.80
2022-11-13T22:28:49.173Z,4.80
2022-11-13T22:31:19.955Z,4.90
2022-11-13T22:33:50.549Z,4.90
2022-11-13T22:36:23.898Z,5.00
2022-11-13T22:38:52.373Z,5.00
2022-11-13T22:41:23.700Z,5.10
2022-11-13T22:43:53.161Z,5.10
2022-11-13T22:46:24.946Z,5.10
2022-11-13T22:48:54.685Z,5.10
2022-11-13T22:51:24.578Z,5.20
2022-11-13T22:53:54.891Z,5.20
2022-11-13T22:56:25.003Z,5.20
2022-11-13T22:58:54.590Z,5.30
2022-11-13T23:01:25.702Z,5.30
2022-11-13T23:03:55.621Z,5.40
2022-11-13T23:06:25.265Z,5.40
2022-11-13T23:08:53.770Z,5.40
2022-11-13T23:11:26.170Z,5.40
2022-11-13T23:13:56.470Z,5.50
2022-11-13T23:16:27.675Z,5.50
2022-11-13T23:18:57.254Z,5.50
2022-11-13T23:21:25.244Z,5.60
2022-11-13T23:23:53.555Z,5.60
2022-11-13T23:26:22.352Z,5.60
2022-11-13T23:28:50.429Z,5.60
2022-11-13T23:31:18.549Z,5.60
2022-11-13T23:33:48.258Z,5.60
2022-11-13T23:36:17.960Z,5.70
2022-11-13T23:38:46.463Z,5.70
2022-11-13T23:41:14.479Z,5.70
2022-11-13T23:46:30.607Z,5.60
2022-11-13T23:49:00.004Z,5.70
2022-11-13T23:51:28.004Z,5.60
2022-11-13T23:53:56.005Z,5.60
2022-11-13T23:56:24.038Z,5.60
2022-11-13T23:58:53.197Z,5.60
